Flight Track Log - Related Links

Times and Time Zones

All times are in EDT time to prevent confusion due to time zone crossing. See the CCA4494 flight status page for this flight to view local times or setup timezone preferences in your user account.

Time Position Orientation Groundspeed Altitude Reporting Facility
EDT Latitude Longitude Course Direction KTS MPH feet Rate Location/Type
Thu 04:23:00 AM 31.6897 103.8199 174° South  Level Estimated
Thu 04:24:00 AM 31.6283 103.8270 174° South  Level Estimated
Thu 04:25:00 AM 31.5668 103.8341 174° South  Level Estimated
Thu 04:26:00 AM 31.5054 103.8412 174° South  Level Estimated
Thu 04:27:00 AM 31.4439 103.8483 174° South  Level Estimated
Thu 04:28:00 AM 31.3825 103.8554 174° South  Level Estimated
Thu 04:29:00 AM 31.3211 103.8624 174° South  Level Estimated
Thu 04:30:00 AM 31.2596 103.8695 174° South  Level Estimated
Thu 04:31:00 AM 31.1982 103.8765 174° South  Level Estimated
Thu 04:32:00 AM 31.1367 103.8836 174° South  Level Estimated
Thu 04:33:00 AM 31.0753 103.8906 174° South  Level Estimated
Thu 04:34:00 AM 31.0139 103.8976 174° South  Level Estimated
Thu 04:35:00 AM 30.9524 103.9046 174° South  Level Estimated
Thu 04:36:00 AM 30.8910 103.9116 174° South  Level Estimated
Thu 04:37:00 AM 30.8295 103.9186 174° South  Level Estimated
Thu 04:38:00 AM 30.7681 103.9256 174° South  Level Estimated
Thu 04:39:00 AM 30.7066 103.9326 174° South  Level Estimated
Thu 04:40:00 AM 30.6452 103.9395 174° South  Level Estimated
Thu 04:41:00 AM 30.5837 103.9465 174° South  Level Estimated
Thu 04:42:00 AM 30.5785 103.9471 174° South  Level Estimated
Thu 04:43:00 AM 30.5785 103.9471 240° Southwest  Level Estimated
Thu 04:44:00 AM 30.5785 103.9471 240° Southwest  Level Estimated

Login

Don't have an account? Register now (free) for customized features, flight alerts, and more!